5NBRO DNYO-DAAT
Flight info
| Callsign | 5NBRO |
|---|---|
| Flight time | N/A |
| Altitude | 22000 |
| Route | YOL UV593 KAN UA604 TMS |
| Aircraft | PC12/L-SDFGRWY/S |
Departure
| Time | 2026-05-07 17:10 |
|---|---|
| Airport | Yola Airport (DNYO) |
Arrival
| Time | N/A |
|---|---|
| Airport | Aguenar – Hadj Bey Akhamok Airport (DAAT) |
| Time | Latitude | Longitude | Altitude | Speed | Heading |
|---|---|---|---|---|---|
| 2026-05-07 17:02 | 9.26541 | 12.42686 | 587 ft | 0 kts | 12° |
| 2026-05-07 17:08 | 9.26573 | 12.42693 | 581 ft | 14 kts | 11° |
| 2026-05-07 17:08 | 9.26741 | 12.42685 | 584 ft | 26 kts | 349° |
| 2026-05-07 17:08 | 9.26817 | 12.42794 | 588 ft | 24 kts | 77° |
| 2026-05-07 17:09 | 9.26982 | 12.42833 | 589 ft | 23 kts | 352° |
| 2026-05-07 17:09 | 9.27101 | 12.42803 | 590 ft | 16 kts | 67° |
| 2026-05-07 17:09 | 9.27002 | 12.42832 | 589 ft | 31 kts | 171° |
| 2026-05-07 17:09 | 9.26602 | 12.42901 | 591 ft | 83 kts | 170° |
| 2026-05-07 17:10 | 9.25902 | 12.43019 | 591 ft | 121 kts | 170° |
| 2026-05-07 17:10 | 9.25023 | 12.43167 | 809 ft | 136 kts | 173° |
| 2026-05-07 17:10 | 9.24064 | 12.43368 | 1202 ft | 145 kts | 161° |
| 2026-05-07 17:10 | 9.23363 | 12.44148 | 1576 ft | 162 kts | 104° |
| 2026-05-07 17:11 | 9.23567 | 12.45159 | 2299 ft | 142 kts | 45° |
| 2026-05-07 17:11 | 9.24419 | 12.45532 | 2873 ft | 137 kts | 356° |
| 2026-05-07 17:11 | 9.25294 | 12.45145 | 3335 ft | 144 kts | 320° |
| 2026-05-07 17:11 | 9.26090 | 12.44522 | 3897 ft | 146 kts | 323° |
| 2026-05-07 17:12 | 9.26938 | 12.43935 | 4442 ft | 149 kts | 327° |
| 2026-05-07 17:12 | 9.27817 | 12.43359 | 4982 ft | 152 kts | 330° |
| 2026-05-07 17:12 | 9.28724 | 12.42770 | 5505 ft | 158 kts | 330° |
| 2026-05-07 17:12 | 9.29544 | 12.42010 | 6067 ft | 164 kts | 306° |
| 2026-05-07 17:13 | 9.30212 | 12.41053 | 6585 ft | 168 kts | 309° |
| 2026-05-07 17:13 | 9.30914 | 12.40113 | 7108 ft | 170 kts | 310° |
| 2026-05-07 17:13 | 9.31627 | 12.39137 | 7629 ft | 173 kts | 310° |
| 2026-05-07 17:13 | 9.32347 | 12.38147 | 8212 ft | 177 kts | 311° |
| 2026-05-07 17:14 | 9.33084 | 12.37134 | 8743 ft | 181 kts | 311° |
| 2026-05-07 17:14 | 9.33838 | 12.36097 | 9272 ft | 185 kts | 312° |
| 2026-05-07 17:14 | 9.34606 | 12.35043 | 9789 ft | 187 kts | 312° |
| 2026-05-07 17:14 | 9.35380 | 12.33978 | 10329 ft | 187 kts | 312° |
| 2026-05-07 17:15 | 9.36154 | 12.32912 | 10859 ft | 188 kts | 312° |
| 2026-05-07 17:15 | 9.36932 | 12.31845 | 11389 ft | 188 kts | 311° |
| 2026-05-07 17:15 | 9.37710 | 12.30776 | 11920 ft | 189 kts | 311° |
| 2026-05-07 17:15 | 9.38490 | 12.29704 | 12445 ft | 190 kts | 311° |
| 2026-05-07 17:16 | 9.39272 | 12.28628 | 12982 ft | 190 kts | 311° |
| 2026-05-07 17:16 | 9.40058 | 12.27547 | 13523 ft | 191 kts | 311° |
| 2026-05-07 17:16 | 9.40847 | 12.26463 | 13986 ft | 191 kts | 311° |
| 2026-05-07 17:16 | 9.41640 | 12.25374 | 14391 ft | 193 kts | 310° |
| 2026-05-07 17:17 | 9.42082 | 12.24766 | 14629 ft | 194 kts | 310° |
| 2026-05-07 17:17 | 9.42215 | 12.24582 | 14696 ft | 192 kts | 311° |
| 2026-05-07 17:17 | 9.42954 | 12.23573 | 14685 ft | 168 kts | 313° |
| 2026-05-07 17:18 | 9.43612 | 12.22672 | 14581 ft | 163 kts | 310° |
| 2026-05-07 17:18 | 9.44337 | 12.21663 | 14653 ft | 189 kts | 311° |
| 2026-05-07 17:18 | 9.45134 | 12.20570 | 15027 ft | 193 kts | 311° |
| 2026-05-07 17:18 | 9.45933 | 12.19471 | 15453 ft | 195 kts | 310° |
| 2026-05-07 17:19 | 9.46740 | 12.18360 | 15882 ft | 197 kts | 310° |
| 2026-05-07 17:19 | 9.47555 | 12.17239 | 16307 ft | 198 kts | 310° |
| 2026-05-07 17:19 | 9.48376 | 12.16109 | 16723 ft | 200 kts | 310° |
| 2026-05-07 17:19 | 9.49205 | 12.14971 | 17134 ft | 201 kts | 309° |
| 2026-05-07 17:20 | 9.50036 | 12.13824 | 17560 ft | 203 kts | 309° |
| 2026-05-07 17:20 | 9.50854 | 12.12699 | 17971 ft | 204 kts | 309° |
| 2026-05-07 17:20 | 9.51698 | 12.11537 | 18344 ft | 206 kts | 309° |
| 2026-05-07 17:20 | 9.52547 | 12.10369 | 18707 ft | 206 kts | 309° |
| 2026-05-07 17:21 | 9.53402 | 12.09192 | 19072 ft | 207 kts | 309° |
| 2026-05-07 17:21 | 9.54258 | 12.08014 | 19433 ft | 208 kts | 309° |
| 2026-05-07 17:21 | 9.55108 | 12.06843 | 19790 ft | 210 kts | 309° |
| 2026-05-07 17:21 | 9.56009 | 12.05606 | 19860 ft | 228 kts | 309° |
| 2026-05-07 17:22 | 9.56990 | 12.04262 | 19901 ft | 245 kts | 309° |
| 2026-05-07 17:22 | 9.58025 | 12.02837 | 19937 ft | 257 kts | 308° |
| 2026-05-07 17:22 | 9.59102 | 12.01350 | 19983 ft | 266 kts | 308° |
| 2026-05-07 17:22 | 9.60211 | 11.99821 | 20009 ft | 272 kts | 308° |
| 2026-05-07 17:23 | 9.61340 | 11.98266 | 20023 ft | 276 kts | 308° |
| 2026-05-07 17:23 | 9.62485 | 11.96688 | 20034 ft | 279 kts | 308° |
| 2026-05-07 17:23 | 9.63640 | 11.95095 | 20049 ft | 281 kts | 308° |
| 2026-05-07 17:23 | 9.64803 | 11.93492 | 20058 ft | 283 kts | 308° |
| 2026-05-07 17:24 | 9.65971 | 11.91881 | 20070 ft | 284 kts | 308° |
| 2026-05-07 17:24 | 9.67142 | 11.90266 | 20075 ft | 284 kts | 308° |
| 2026-05-07 17:24 | 9.68316 | 11.88648 | 20082 ft | 285 kts | 308° |
| 2026-05-07 17:24 | 9.69493 | 11.87024 | 20088 ft | 285 kts | 308° |
| 2026-05-07 17:25 | 9.70668 | 11.85403 | 20083 ft | 285 kts | 308° |
| 2026-05-07 17:25 | 9.71828 | 11.83804 | 20111 ft | 285 kts | 308° |
| 2026-05-07 17:25 | 9.73003 | 11.82182 | 20137 ft | 285 kts | 308° |
| 2026-05-07 17:25 | 9.74169 | 11.80573 | 20074 ft | 274 kts | 309° |
| 2026-05-07 17:26 | 9.75306 | 11.79004 | 20082 ft | 279 kts | 308° |
| 2026-05-07 17:26 | 9.76462 | 11.77408 | 20075 ft | 281 kts | 308° |
| 2026-05-07 17:26 | 9.77602 | 11.75834 | 19826 ft | 279 kts | 309° |
| 2026-05-07 17:26 | 9.78761 | 11.74236 | 19804 ft | 282 kts | 308° |
| 2026-05-07 17:27 | 9.79926 | 11.72626 | 19804 ft | 284 kts | 309° |
| 2026-05-07 17:27 | 9.81095 | 11.71012 | 19802 ft | 285 kts | 309° |
| 2026-05-07 17:27 | 9.82268 | 11.69391 | 19803 ft | 285 kts | 308° |
| 2026-05-07 17:27 | 9.83441 | 11.67770 | 19806 ft | 285 kts | 308° |
| 2026-05-07 17:28 | 9.84616 | 11.66147 | 19805 ft | 285 kts | 309° |
| 2026-05-07 17:28 | 9.85790 | 11.64525 | 19804 ft | 285 kts | 309° |
| 2026-05-07 17:28 | 9.86964 | 11.62901 | 19805 ft | 285 kts | 309° |
| 2026-05-07 17:28 | 9.88140 | 11.61276 | 19806 ft | 286 kts | 309° |
| 2026-05-07 17:29 | 9.89317 | 11.59648 | 19805 ft | 286 kts | 309° |
| 2026-05-07 17:29 | 9.90478 | 11.58044 | 19803 ft | 286 kts | 309° |
| 2026-05-07 17:29 | 9.91670 | 11.56396 | 19803 ft | 286 kts | 309° |
| 2026-05-07 17:29 | 9.92828 | 11.54794 | 19803 ft | 285 kts | 309° |
| 2026-05-07 17:30 | 9.94003 | 11.53169 | 19804 ft | 285 kts | 309° |
| 2026-05-07 17:30 | 9.95175 | 11.51548 | 19804 ft | 285 kts | 308° |
| 2026-05-07 17:30 | 9.96347 | 11.49926 | 19803 ft | 285 kts | 309° |
| 2026-05-07 17:30 | 9.97521 | 11.48302 | 19803 ft | 285 kts | 309° |
| 2026-05-07 17:31 | 9.98692 | 11.46680 | 19801 ft | 285 kts | 309° |
| 2026-05-07 17:31 | 9.99867 | 11.45055 | 19803 ft | 285 kts | 309° |
| 2026-05-07 17:31 | 10.00185 | 11.44613 | 19802 ft | 285 kts | 308° |
| 2026-05-07 17:32 | 10.00480 | 11.44205 | 19801 ft | 285 kts | 309° |
| 2026-05-07 17:32 | 10.01651 | 11.42585 | 19802 ft | 285 kts | 309° |
| 2026-05-07 17:33 | 10.02820 | 11.40963 | 19802 ft | 285 kts | 308° |
| 2026-05-07 17:33 | 10.03938 | 11.39299 | 19804 ft | 285 kts | 307° |
| 2026-05-07 17:33 | 10.05078 | 11.37657 | 19806 ft | 285 kts | 308° |
| 2026-05-07 17:33 | 10.06224 | 11.36008 | 19807 ft | 285 kts | 307° |
| 2026-05-07 17:34 | 10.07340 | 11.34375 | 19806 ft | 286 kts | 307° |
| 2026-05-07 17:34 | 10.08472 | 11.32717 | 19803 ft | 285 kts | 307° |
| 2026-05-07 17:34 | 10.09604 | 11.31065 | 19803 ft | 285 kts | 307° |
| 2026-05-07 17:34 | 10.10737 | 11.29414 | 19803 ft | 285 kts | 307° |
| 2026-05-07 17:35 | 10.11867 | 11.27763 | 19804 ft | 285 kts | 307° |
| 2026-05-07 17:35 | 10.13002 | 11.26107 | 19805 ft | 286 kts | 307° |
| 2026-05-07 17:35 | 10.14134 | 11.24452 | 19808 ft | 286 kts | 307° |
| 2026-05-07 17:35 | 10.15269 | 11.22793 | 19808 ft | 286 kts | 307° |
| 2026-05-07 17:36 | 10.16404 | 11.21136 | 19809 ft | 285 kts | 307° |
| 2026-05-07 17:36 | 10.17535 | 11.19485 | 19811 ft | 285 kts | 307° |
| 2026-05-07 17:36 | 10.18669 | 11.17828 | 19816 ft | 285 kts | 307° |
| 2026-05-07 17:36 | 10.19799 | 11.16175 | 19815 ft | 285 kts | 307° |
| 2026-05-07 17:37 | 10.20931 | 11.14520 | 19814 ft | 285 kts | 307° |
| 2026-05-07 17:37 | 10.22062 | 11.12868 | 19811 ft | 285 kts | 307° |
| 2026-05-07 17:37 | 10.23181 | 11.11231 | 19809 ft | 285 kts | 307° |
| 2026-05-07 17:37 | 10.24310 | 11.09580 | 19812 ft | 285 kts | 307° |
| 2026-05-07 17:38 | 10.25441 | 11.07925 | 19812 ft | 285 kts | 307° |
| 2026-05-07 17:38 | 10.26570 | 11.06275 | 19818 ft | 285 kts | 307° |
| 2026-05-07 17:38 | 10.27698 | 11.04624 | 19817 ft | 285 kts | 307° |
| 2026-05-07 17:38 | 10.28829 | 11.02971 | 19817 ft | 284 kts | 307° |
| 2026-05-07 17:39 | 10.29956 | 11.01320 | 19814 ft | 284 kts | 307° |
| 2026-05-07 17:39 | 10.31083 | 10.99671 | 19816 ft | 285 kts | 307° |
| 2026-05-07 17:39 | 10.32210 | 10.98021 | 19813 ft | 284 kts | 307° |
| 2026-05-07 17:39 | 10.33339 | 10.96368 | 19809 ft | 284 kts | 307° |
| 2026-05-07 17:40 | 10.34466 | 10.94717 | 19813 ft | 284 kts | 307° |
| 2026-05-07 17:40 | 10.35592 | 10.93069 | 19812 ft | 284 kts | 307° |
| 2026-05-07 17:40 | 10.36719 | 10.91418 | 19813 ft | 284 kts | 307° |
| 2026-05-07 17:40 | 10.37846 | 10.89767 | 19813 ft | 284 kts | 307° |
| 2026-05-07 17:41 | 10.38973 | 10.88117 | 19812 ft | 284 kts | 307° |
| 2026-05-07 17:41 | 10.40084 | 10.86488 | 19814 ft | 284 kts | 307° |
| 2026-05-07 17:41 | 10.41212 | 10.84835 | 19814 ft | 284 kts | 307° |
| 2026-05-07 17:41 | 10.42336 | 10.83188 | 19814 ft | 284 kts | 307° |
| 2026-05-07 17:42 | 10.43461 | 10.81538 | 19813 ft | 284 kts | 307° |
| 2026-05-07 17:42 | 10.44586 | 10.79888 | 19812 ft | 284 kts | 307° |
| 2026-05-07 17:42 | 10.45710 | 10.78240 | 19816 ft | 284 kts | 307° |
| 2026-05-07 17:42 | 10.46835 | 10.76590 | 19817 ft | 284 kts | 307° |
| 2026-05-07 17:43 | 10.47960 | 10.74940 | 19815 ft | 284 kts | 307° |
| 2026-05-07 17:43 | 10.49088 | 10.73285 | 19815 ft | 284 kts | 307° |
| 2026-05-07 17:43 | 10.50212 | 10.71637 | 19815 ft | 284 kts | 307° |
| 2026-05-07 17:43 | 10.51337 | 10.69986 | 19815 ft | 283 kts | 307° |
| 2026-05-07 17:44 | 10.52458 | 10.68340 | 19815 ft | 283 kts | 307° |
| 2026-05-07 17:44 | 10.53581 | 10.66691 | 19816 ft | 283 kts | 307° |
| 2026-05-07 17:44 | 10.54688 | 10.65067 | 19812 ft | 283 kts | 307° |
| 2026-05-07 17:44 | 10.55811 | 10.63418 | 19812 ft | 283 kts | 307° |
| 2026-05-07 17:45 | 10.56933 | 10.61769 | 19811 ft | 283 kts | 307° |
| 2026-05-07 17:45 | 10.58054 | 10.60124 | 19812 ft | 283 kts | 307° |
| 2026-05-07 17:45 | 10.59188 | 10.58490 | 19814 ft | 283 kts | 308° |
| 2026-05-07 17:45 | 10.60337 | 10.56866 | 19814 ft | 283 kts | 308° |
| 2026-05-07 17:46 | 10.61480 | 10.55235 | 19815 ft | 283 kts | 308° |
| 2026-05-07 17:46 | 10.62616 | 10.53605 | 19815 ft | 283 kts | 307° |
| 2026-05-07 17:46 | 10.63754 | 10.51975 | 19814 ft | 282 kts | 308° |
| 2026-05-07 17:46 | 10.64891 | 10.50349 | 19813 ft | 282 kts | 308° |
| 2026-05-07 17:47 | 10.66025 | 10.48725 | 19814 ft | 282 kts | 308° |
| 2026-05-07 17:47 | 10.67163 | 10.47095 | 19815 ft | 282 kts | 307° |
| 2026-05-07 17:47 | 10.68301 | 10.45466 | 19814 ft | 282 kts | 308° |
| 2026-05-07 17:47 | 10.69437 | 10.43839 | 19814 ft | 282 kts | 307° |
| 2026-05-07 17:48 | 10.70574 | 10.42210 | 19813 ft | 282 kts | 307° |
| 2026-05-07 17:48 | 10.71697 | 10.40602 | 19812 ft | 283 kts | 307° |
| 2026-05-07 17:48 | 10.72836 | 10.38969 | 19812 ft | 283 kts | 307° |
| 2026-05-07 17:48 | 10.73975 | 10.37337 | 19815 ft | 283 kts | 307° |
| 2026-05-07 17:49 | 10.75111 | 10.35708 | 19814 ft | 283 kts | 307° |
| 2026-05-07 17:49 | 10.76251 | 10.34074 | 19815 ft | 283 kts | 307° |
| 2026-05-07 17:49 | 10.77393 | 10.32438 | 19815 ft | 283 kts | 307° |
| 2026-05-07 17:49 | 10.78532 | 10.30804 | 19814 ft | 283 kts | 307° |
| 2026-05-07 17:50 | 10.79672 | 10.29169 | 19814 ft | 283 kts | 307° |
| 2026-05-07 17:50 | 10.80812 | 10.27533 | 19815 ft | 283 kts | 307° |
| 2026-05-07 17:50 | 10.81952 | 10.25898 | 19814 ft | 283 kts | 307° |
| 2026-05-07 17:50 | 10.83082 | 10.24278 | 19814 ft | 284 kts | 307° |
| 2026-05-07 17:51 | 10.84220 | 10.22643 | 19814 ft | 283 kts | 307° |
| 2026-05-07 17:51 | 10.85362 | 10.21004 | 19818 ft | 283 kts | 307° |
| 2026-05-07 17:51 | 10.86502 | 10.19368 | 19818 ft | 284 kts | 307° |
| 2026-05-07 17:51 | 10.87643 | 10.17730 | 19817 ft | 284 kts | 307° |
| 2026-05-07 17:52 | 10.88784 | 10.16093 | 19817 ft | 284 kts | 307° |
| 2026-05-07 17:52 | 10.89926 | 10.14451 | 19817 ft | 284 kts | 307° |
| 2026-05-07 17:52 | 10.91067 | 10.12813 | 19818 ft | 284 kts | 307° |
| 2026-05-07 17:52 | 10.92212 | 10.11168 | 19818 ft | 284 kts | 307° |
| 2026-05-07 17:53 | 10.93356 | 10.09525 | 19818 ft | 284 kts | 307° |
| 2026-05-07 17:53 | 10.94498 | 10.07883 | 19816 ft | 285 kts | 307° |
| 2026-05-07 17:53 | 10.95256 | 10.06794 | 19817 ft | 285 kts | 307° |
| 2026-05-07 17:53 | 10.96774 | 10.04613 | 19818 ft | 285 kts | 307° |
| 2026-05-07 17:54 | 10.97920 | 10.02965 | 19821 ft | 285 kts | 307° |
| 2026-05-07 17:54 | 10.98680 | 10.01871 | 19822 ft | 285 kts | 307° |
| 2026-05-07 17:54 | 11.00210 | 9.99671 | 19820 ft | 285 kts | 307° |
| 2026-05-07 17:54 | 11.00967 | 9.98582 | 19821 ft | 285 kts | 307° |
| 2026-05-07 17:55 | 11.02112 | 9.96935 | 19817 ft | 285 kts | 307° |
| 2026-05-07 17:55 | 11.03256 | 9.95289 | 19817 ft | 285 kts | 307° |
| 2026-05-07 17:55 | 11.04402 | 9.93641 | 19816 ft | 285 kts | 307° |
| 2026-05-07 17:55 | 11.05547 | 9.91992 | 19816 ft | 285 kts | 307° |
| 2026-05-07 17:56 | 11.06693 | 9.90342 | 19816 ft | 285 kts | 307° |
| 2026-05-07 17:56 | 11.07840 | 9.88692 | 19818 ft | 285 kts | 307° |
| 2026-05-07 17:56 | 11.08984 | 9.87044 | 19816 ft | 285 kts | 307° |
| 2026-05-07 17:56 | 11.10130 | 9.85395 | 19817 ft | 285 kts | 307° |
| 2026-05-07 17:57 | 11.11276 | 9.83744 | 19819 ft | 286 kts | 307° |
| 2026-05-07 17:57 | 11.12423 | 9.82091 | 19815 ft | 286 kts | 307° |
| 2026-05-07 17:57 | 11.13572 | 9.80437 | 19812 ft | 285 kts | 307° |
| 2026-05-07 17:57 | 11.14702 | 9.78807 | 19816 ft | 286 kts | 308° |
| 2026-05-07 17:58 | 11.15864 | 9.77133 | 19809 ft | 286 kts | 307° |
| 2026-05-07 17:58 | 11.17013 | 9.75476 | 19811 ft | 286 kts | 308° |
| 2026-05-07 17:58 | 11.18145 | 9.73845 | 19813 ft | 286 kts | 307° |
| 2026-05-07 17:58 | 11.19294 | 9.72187 | 19816 ft | 287 kts | 308° |
| 2026-05-07 17:59 | 11.20446 | 9.70526 | 19816 ft | 287 kts | 308° |
| 2026-05-07 17:59 | 11.21597 | 9.68866 | 19816 ft | 287 kts | 308° |
| 2026-05-07 17:59 | 11.22749 | 9.67204 | 19817 ft | 287 kts | 308° |
| 2026-05-07 17:59 | 11.23899 | 9.65545 | 19817 ft | 287 kts | 308° |
| 2026-05-07 18:00 | 11.25052 | 9.63881 | 19817 ft | 287 kts | 308° |
| 2026-05-07 18:00 | 11.26202 | 9.62221 | 19817 ft | 287 kts | 308° |
| 2026-05-07 18:00 | 11.27357 | 9.60556 | 19817 ft | 287 kts | 308° |
| 2026-05-07 18:00 | 11.28509 | 9.58891 | 19816 ft | 288 kts | 308° |
| 2026-05-07 18:01 | 11.29652 | 9.57239 | 19815 ft | 288 kts | 308° |
| 2026-05-07 18:01 | 11.30810 | 9.55567 | 19816 ft | 289 kts | 308° |
| 2026-05-07 18:01 | 11.31968 | 9.53897 | 19812 ft | 289 kts | 308° |
| 2026-05-07 18:01 | 11.33127 | 9.52221 | 19813 ft | 289 kts | 308° |
| 2026-05-07 18:02 | 11.33896 | 9.51110 | 19812 ft | 289 kts | 308° |